Time;durP1;ratioP1;P1;durP2;ratioP2;P2;SDS_P1;SDS_P2;PMS_P1;PMS_P2;Temp;Humidity;BMP_temperature;BMP_pressure;BME280_temperature;BME280_humidity;BME280_pressure;Samples;Min_cycle;Max_cycle;Signal;HPM_P1;HPM_P2
2023/04/03 00:03:58;;;;;;;4.13;2.08;;;;;;;22.77;37.30;101684.53;20777980;28;20497;-73
2023/04/03 00:13:59;;;;;;;6.95;2.67;;;;;;;22.79;36.19;101729.72;20776709;28;20049;-77
2023/04/03 00:24:00;;;;;;;5.43;2.40;;;;;;;22.79;36.34;101746.47;20777585;28;20080;-70
2023/04/03 00:34:02;;;;;;;5.75;2.20;;;;;;;22.60;35.92;101736.91;20776408;28;20413;-71
2023/04/03 00:44:35;;;;;;;6.80;2.72;;;;;;;22.78;35.96;101778.28;20789501;28;20050;-74
2023/04/03 00:54:37;;;;;;;9.85;2.25;;;;;;;22.65;36.06;101781.56;20777177;28;20049;-70
2023/04/03 01:04:41;;;;;;;5.28;1.80;;;;;;;22.83;35.54;101825.72;20774199;28;20112;-76
2023/04/03 01:14:48;;;;;;;2.20;1.63;;;;;;;22.83;35.56;101831.31;20760799;28;20045;-74
2023/04/03 01:24:49;;;;;;;4.65;1.80;;;;;;;22.82;35.70;101835.22;20748810;28;20050;-76
2023/04/03 01:34:51;;;;;;;7.03;2.83;;;;;;;22.99;35.35;101856.50;20780413;28;20045;-75
2023/04/03 01:44:52;;;;;;;4.28;2.53;;;;;;;22.96;35.33;101857.06;20838388;28;20033;-76
2023/04/03 01:54:53;;;;;;;4.65;2.33;;;;;;;22.90;35.05;101852.56;20721560;28;20496;-76
2023/04/03 02:04:55;;;;;;;2.55;1.70;;;;;;;22.87;35.27;101853.09;20753309;28;20104;-74
2023/04/03 02:14:56;;;;;;;3.55;1.75;;;;;;;22.87;35.80;101875.44;20759601;28;20069;-79
2023/04/03 02:24:57;;;;;;;4.28;2.05;;;;;;;22.87;35.43;101869.84;20761749;28;20434;-78
2023/04/03 02:34:59;;;;;;;4.00;2.20;;;;;;;23.03;35.40;101871.59;20751780;28;20030;-80
2023/04/03 02:45:00;;;;;;;2.97;1.48;;;;;;;22.98;34.64;101877.16;20739429;28;20107;-80
2023/04/03 02:55:02;;;;;;;4.85;1.50;;;;;;;23.15;34.58;101900.13;20748999;28;20033;-76
2023/04/03 03:05:04;;;;;;;3.85;1.70;;;;;;;23.08;35.09;101894.78;20742824;28;20401;-77
2023/04/03 03:15:06;;;;;;;2.33;1.20;;;;;;;23.24;34.43;101928.38;20744938;28;20029;-79
2023/04/03 03:25:08;;;;;;;3.67;1.20;;;;;;;23.23;33.89;101912.72;20744208;28;20046;-78
2023/04/03 03:35:12;;;;;;;2.60;1.40;;;;;;;23.23;33.65;101915.50;20756329;28;20040;-77
2023/04/03 03:45:17;;;;;;;2.25;1.27;;;;;;;23.14;33.37;101909.63;20754567;28;20034;-78
2023/04/03 03:55:24;;;;;;;2.90;1.48;;;;;;;23.07;32.90;101892.28;20747452;28;20042;-78
2023/04/03 04:05:28;;;;;;;3.67;1.80;;;;;;;23.15;32.31;101905.72;20745237;28;20547;-77
2023/04/03 04:15:30;;;;;;;2.20;1.20;;;;;;;23.04;32.36;101915.16;20749621;28;20448;-78
2023/04/03 04:25:32;;;;;;;3.63;1.40;;;;;;;23.03;32.81;101902.31;20748980;28;20408;-78
2023/04/03 04:35:37;;;;;;;4.65;1.50;;;;;;;23.06;33.12;101924.13;20760510;28;20092;-77
2023/04/03 04:45:38;;;;;;;2.85;1.55;;;;;;;23.09;33.33;101917.97;20766495;28;20546;-78
2023/04/03 04:55:39;;;;;;;3.15;1.40;;;;;;;23.08;33.24;101910.72;20759786;28;20423;-80
2023/04/03 05:05:41;;;;;;;2.67;1.50;;;;;;;23.03;33.17;101902.31;20759772;28;20029;-78
2023/04/03 05:15:42;;;;;;;2.08;1.58;;;;;;;22.98;32.87;101899.50;20757554;28;20050;-79
2023/04/03 05:25:45;;;;;;;2.75;1.67;;;;;;;23.00;32.49;101909.28;20756975;28;20087;-79
2023/04/03 05:35:46;;;;;;;2.38;1.02;;;;;;;22.98;32.25;101905.91;20755749;28;20045;-78
2023/04/03 05:45:47;;;;;;;1.17;0.98;;;;;;;22.96;32.51;101912.91;20754901;28;20037;-77
2023/04/03 05:55:52;;;;;;;1.27;1.08;;;;;;;22.91;32.68;101904.47;20753956;28;20049;-78
2023/04/03 06:05:53;;;;;;;1.52;1.05;;;;;;;22.90;32.16;101913.97;20774675;28;20037;-79
2023/04/03 06:15:55;;;;;;;1.52;1.20;;;;;;;22.89;32.68;101901.09;20752840;28;20092;-78
2023/04/03 06:25:58;;;;;;;2.25;0.90;;;;;;;22.74;32.13;101899.91;20751695;28;20480;-79
2023/04/03 06:36:06;;;;;;;1.65;0.90;;;;;;;22.83;31.72;101915.03;20751293;28;20030;-79
2023/04/03 06:46:14;;;;;;;2.20;1.03;;;;;;;22.77;31.59;101887.34;20750847;28;20137;-79
2023/04/03 06:56:16;;;;;;;2.23;1.40;;;;;;;22.80;32.05;101892.41;20745336;28;20152;-79
2023/04/03 07:06:21;;;;;;;2.30;1.00;;;;;;;22.68;32.16;101864.72;20751077;28;20477;-80
2023/04/03 07:16:23;;;;;;;14.90;1.73;;;;;;;22.61;32.14;101855.75;20772123;28;20042;-78
2023/04/03 07:26:25;;;;;;;1.63;1.08;;;;;;;22.70;31.52;101873.66;20755970;28;20104;-79
2023/04/03 07:36:27;;;;;;;2.15;1.35;;;;;;;22.65;32.01;101873.63;20761327;28;20068;-80
2023/04/03 07:46:28;;;;;;;1.33;1.08;;;;;;;22.65;31.73;101873.63;20749591;28;20057;-80
2023/04/03 07:56:30;;;;;;;3.70;1.20;;;;;;;22.64;31.94;101883.13;20746982;28;20466;-80
2023/04/03 08:06:34;;;;;;;1.60;1.40;;;;;;;22.61;32.19;101880.84;20746873;28;20365;-79
2023/04/03 08:16:36;;;;;;;2.25;1.15;;;;;;;22.56;31.58;101876.09;20752524;28;20042;-79
2023/04/03 08:26:37;;;;;;;1.35;1.10;;;;;;;22.41;31.87;101852.84;20772694;28;20108;-80
2023/04/03 08:36:39;;;;;;;2.08;1.20;;;;;;;22.44;31.67;101875.44;20765697;28;20030;-79
2023/04/03 08:47:18;;;;;;;1.55;0.95;;;;;;;22.47;31.74;101908.38;20763034;28;20037;-79
2023/04/03 08:57:48;;;;;;;2.47;1.10;;;;;;;22.42;31.53;101901.94;20772198;28;20492;-79
2023/04/03 09:08:05;;;;;;;2.03;1.13;;;;;;;22.43;31.87;101898.88;20756346;28;20440;-80
2023/04/03 09:18:22;;;;;;;0.82;0.80;;;;;;;22.39;32.00;101900.50;20760889;28;20038;-79
2023/04/03 09:28:23;;;;;;;2.63;1.15;;;;;;;22.27;31.35;101877.56;20759028;28;20041;-79
2023/04/03 09:38:25;;;;;;;2.63;1.20;;;;;;;22.34;31.57;101894.91;20765109;28;20116;-80
2023/04/03 09:48:27;;;;;;;1.27;1.10;;;;;;;22.36;31.42;101919.72;20761099;28;20041;-78
2023/04/03 09:58:37;;;;;;;1.20;0.93;;;;;;;22.31;30.95;101940.91;20758213;28;20034;-80
2023/04/03 10:08:40;;;;;;;3.17;1.33;;;;;;;22.27;31.30;101950.06;20755552;28;20091;-80
2023/04/03 10:19:01;;;;;;;1.65;1.10;;;;;;;22.26;31.37;101996.59;20754131;28;20053;-79
2023/04/03 10:29:17;;;;;;;1.40;1.10;;;;;;;22.26;31.27;102024.47;20755219;28;20046;-78
2023/04/03 10:39:39;;;;;;;1.83;1.15;;;;;;;22.16;31.47;102038.31;20750139;28;20041;-80
2023/04/03 10:49:56;;;;;;;1.40;1.20;;;;;;;22.07;33.79;102051.84;20702134;28;20041;-80
2023/04/03 11:00:33;;;;;;;1.85;1.17;;;;;;;21.95;33.71;102092.16;20748521;28;20030;-75
2023/04/03 11:10:48;;;;;;;10.73;1.42;;;;;;;21.95;33.96;102114.44;20701951;28;20495;-74
2023/04/03 11:21:21;;;;;;;1.50;0.95;;;;;;;21.99;33.76;102132.31;20722343;28;20473;-73
2023/04/03 11:31:32;;;;;;;2.75;1.23;;;;;;;21.99;33.76;102104.44;20815157;28;20058;-74
2023/04/03 11:41:34;;;;;;;2.28;1.23;;;;;;;21.88;34.32;102083.13;20767366;28;20076;-76
2023/04/03 11:51:40;;;;;;;1.90;1.10;;;;;;;21.68;33.90;102053.94;20749150;28;20052;-77
2023/04/03 12:01:46;;;;;;;2.97;1.45;;;;;;;21.76;33.90;102086.03;20746512;28;20109;-75
2023/04/03 12:11:49;;;;;;;2.28;1.15;;;;;;;21.67;34.46;102112.66;20744870;28;20555;-77
2023/04/03 12:21:58;;;;;;;1.27;1.10;;;;;;;21.49;34.45;102072.91;20745243;28;20472;-77
2023/04/03 12:32:20;;;;;;;3.83;1.58;;;;;;;21.40;34.65;102080.00;20744712;28;20055;-76
2023/04/03 12:42:45;;;;;;;6.30;1.55;;;;;;;21.30;34.53;102058.41;20743819;28;20026;-74
2023/04/03 12:52:55;;;;;;;2.05;1.02;;;;;;;21.18;34.25;102027.03;20683387;28;20043;-77
2023/04/03 13:03:03;;;;;;;1.38;0.98;;;;;;;21.30;34.62;102029.69;20717015;28;20559;-77
2023/04/03 13:13:15;;;;;;;2.15;1.30;;;;;;;21.23;34.72;102007.63;20757146;28;20092;-76
2023/04/03 13:23:22;;;;;;;1.60;1.20;;;;;;;21.44;34.43;101991.22;20756600;28;20103;-77
2023/04/03 13:33:33;;;;;;;2.58;1.15;;;;;;;21.65;33.70;101987.56;20757073;28;20104;-76
2023/04/03 13:43:37;;;;;;;2.17;1.48;;;;;;;21.55;34.05;101954.88;20755557;28;20042;-76
2023/04/03 13:54:09;;;;;;;1.90;1.40;;;;;;;21.22;34.23;101888.19;20756069;28;20041;-77
2023/04/03 14:04:19;;;;;;;2.00;1.30;;;;;;;21.52;33.97;101915.56;20746707;28;20050;-77
2023/04/03 14:14:32;;;;;;;1.77;1.10;;;;;;;22.01;33.73;101968.47;20752530;28;20572;-77
2023/04/03 14:24:34;;;;;;;1.85;1.10;;;;;;;22.03;33.68;101967.06;20752986;28;20128;-77
2023/04/03 14:34:35;;;;;;;2.13;1.08;;;;;;;21.99;33.58;101956.72;20751463;28;20076;-77
2023/04/03 14:44:37;;;;;;;1.95;1.40;;;;;;;22.22;33.47;101987.09;20752484;28;20030;-77
2023/04/03 14:54:39;;;;;;;1.52;1.42;;;;;;;22.10;33.34;101954.88;20753283;28;20547;-77
2023/04/03 15:04:43;;;;;;;1.73;1.10;;;;;;;22.18;33.67;101946.91;20749033;28;20372;-75
2023/04/03 15:14:44;;;;;;;2.33;1.10;;;;;;;22.35;33.45;101957.91;20747830;28;20080;-75
2023/04/03 15:24:46;;;;;;;2.90;1.40;;;;;;;22.45;33.19;101968.31;20747210;28;20046;-75
2023/04/03 15:34:47;;;;;;;8.35;1.70;;;;;;;22.46;32.78;101945.75;20747423;28;20116;-78
2023/04/03 15:44:49;;;;;;;5.88;1.80;;;;;;;22.33;32.55;101904.38;20746217;28;20049;-77
2023/04/03 15:54:50;;;;;;;255.05;18.88;;;;;;;22.56;33.24;101933.81;20746630;28;20566;-69
2023/04/03 16:04:52;;;;;;;27.13;3.13;;;;;;;22.61;33.24;101927.44;20748070;28;20069;-65
2023/04/03 16:14:53;;;;;;;20.63;3.70;;;;;;;22.51;33.17;101869.63;20743167;28;20046;-64
2023/04/03 16:24:55;;;;;;;34.28;4.05;;;;;;;22.71;33.48;101875.31;20744021;28;20045;-63
2023/04/03 16:34:57;;;;;;;265.98;16.67;;;;;;;22.69;33.85;101855.25;20742226;28;20345;-70
2023/04/03 16:45:00;;;;;;;20.48;3.53;;;;;;;22.80;33.82;101847.75;20722643;28;20097;-69
2023/04/03 16:55:02;;;;;;;34.17;3.90;;;;;;;22.66;33.84;101801.94;20759306;28;20108;-63
2023/04/03 17:05:07;;;;;;;25.05;3.63;;;;;;;22.84;34.02;101815.41;20748906;28;20038;-63
2023/04/03 17:15:11;;;;;;;44.35;5.18;;;;;;;22.68;34.38;101769.00;20747486;28;20054;-66
2023/04/03 17:25:18;;;;;;;39.78;5.05;;;;;;;22.87;34.62;101774.97;20750840;28;20042;-64
2023/04/03 17:35:20;;;;;;;76.07;5.95;;;;;;;22.85;34.82;101778.00;20750313;28;20335;-61
2023/04/03 17:45:22;;;;;;;56.67;5.47;;;;;;;22.96;34.12;101756.59;20750431;28;20042;-58
2023/04/03 17:55:24;;;;;;;140.32;9.63;;;;;;;23.05;34.57;101729.81;20748639;28;20124;-64
2023/04/03 18:05:29;;;;;;;136.77;8.02;;;;;;;22.87;34.31;101680.06;20750144;28;20042;-61
2023/04/03 18:15:33;;;;;;;123.30;8.38;;;;;;;23.06;34.19;101672.88;20748686;28;20672;-58
2023/04/03 18:25:36;;;;;;;114.90;6.90;;;;;;;23.03;34.06;101634.34;20747604;28;20041;-58
2023/04/03 18:35:38;;;;;;;79.45;6.72;;;;;;;23.18;34.05;101595.22;20738787;28;20412;-58
2023/04/03 18:45:40;;;;;;;82.57;6.13;;;;;;;23.43;33.73;101627.91;20746541;28;20054;-58
2023/04/03 18:55:41;;;;;;;184.65;13.00;;;;;;;23.37;35.01;101611.41;20746633;28;20100;-60
2023/04/03 19:05:45;;;;;;;71.78;6.15;;;;;;;23.24;34.02;101552.25;20751335;28;20046;-62
2023/04/03 19:15:47;;;;;;;63.50;6.32;;;;;;;23.50;34.28;101582.91;20751943;28;20486;-63
2023/04/03 19:26:06;;;;;;;69.78;6.63;;;;;;;23.53;34.19;101557.19;20752278;28;20073;-63
2023/04/03 19:36:10;;;;;;;169.07;13.55;;;;;;;23.59;34.75;101547.66;20750287;28;20452;-62
2023/04/03 19:46:12;;;;;;;112.93;9.35;;;;;;;23.55;34.72;101525.06;20752830;28;20076;-60
2023/04/03 19:56:17;;;;;;;48.53;5.90;;;;;;;23.61;34.75;101509.13;20740136;28;20068;-61
2023/04/03 20:06:20;;;;;;;63.45;7.15;;;;;;;23.70;35.33;101503.81;20736543;28;20103;-64
2023/04/03 20:16:24;;;;;;;35.28;5.05;;;;;;;23.68;35.04;101467.75;20753095;28;20038;-63
2023/04/03 20:26:27;;;;;;;29.67;4.30;;;;;;;23.65;34.91;101473.94;20765022;28;20100;-62
2023/04/03 20:36:29;;;;;;;33.15;3.85;;;;;;;22.88;36.13;101341.28;20762875;28;20038;-61
2023/04/03 20:46:31;;;;;;;35.88;4.85;;;;;;;23.59;36.22;101486.22;20761778;28;20042;-61
2023/04/03 20:56:33;;;;;;;60.00;6.82;;;;;;;23.54;35.56;101466.69;20761929;28;20115;-61
2023/04/03 21:07:11;;;;;;;51.15;5.10;;;;;;;23.54;37.47;101477.84;20760089;28;20416;-62
2023/04/03 21:17:13;;;;;;;32.30;5.78;;;;;;;23.62;36.73;101474.47;20760396;28;20050;-63
2023/04/03 21:27:15;;;;;;;40.47;5.40;;;;;;;23.54;40.12;101494.63;20757571;28;20489;-61
2023/04/03 21:37:17;;;;;;;29.08;5.05;;;;;;;23.43;39.78;101495.78;20775853;28;20042;-61
2023/04/03 21:47:22;;;;;;;41.67;4.72;;;;;;;23.46;39.37;101500.78;20757148;28;20034;-63
2023/04/03 21:57:24;;;;;;;19.98;4.68;;;;;;;23.26;39.06;101465.38;20739595;28;20100;-62
2023/04/03 22:07:26;;;;;;;42.33;5.72;;;;;;;23.29;39.34;101453.66;20753681;28;20046;-61
2023/04/03 22:17:30;;;;;;;35.17;4.28;;;;;;;23.36;38.57;101458.94;20756269;28;20438;-61
2023/04/03 22:27:32;;;;;;;58.58;7.70;;;;;;;23.36;38.39;101467.31;20752577;28;20042;-63
2023/04/03 22:37:33;;;;;;;56.38;5.97;;;;;;;23.39;38.25;101466.75;20746347;28;20108;-63
2023/04/03 22:47:35;;;;;;;61.95;6.28;;;;;;;23.39;37.95;101475.13;20736035;28;20099;-63
2023/04/03 22:57:37;;;;;;;37.05;6.22;;;;;;;23.38;38.66;101477.09;20746237;28;20038;-64
2023/04/03 23:07:38;;;;;;;31.90;4.63;;;;;;;23.46;37.83;101470.91;20730727;28;20050;-64
2023/04/03 23:17:40;;;;;;;27.75;5.15;;;;;;;23.49;38.45;101480.66;20746531;28;20443;-63
2023/04/03 23:27:41;;;;;;;133.40;10.52;;;;;;;23.46;38.32;101467.25;20745764;28;20037;-62
2023/04/03 23:37:45;;;;;;;25.13;4.38;;;;;;;23.45;37.31;101458.06;20744267;28;20038;-64
2023/04/03 23:47:46;;;;;;;25.77;5.32;;;;;;;23.45;37.74;101479.56;20742678;28;20038;-64
2023/04/03 23:57:50;;;;;;;25.40;4.45;;;;;;;23.42;37.93;101494.13;20742847;28;20042;-67
